Etusivu
METAR-TAF:

METAR-TAF

Lentoasemat :

Kansas Cityn kansainvälinen lentoasema

Kansas City, Missouri, Yhdysvallat

Leveyspiiri: 39-17-50N, Pituuspiiri: 094-43-50W, korkeus merenpinnasta: 312 m

Tämänhetkinen sää

Tämä raportti tehtiin 24 minuuttia sitten, kello 16.53 UTC
Tuuli 11 kn pohjoisesta/koillisesta
Lämpötila 3°C
Kosteus 75%
Ilmanpaine 1023 hPa
Näkyvyys: 14.5 km
Muutamia pilviä 600 ft:n korkeudessa

METAR: KMCI 141653Z 02011KT 9SM FEW006 03/M01 A3022 RMK AO2 SLP241 T00281011 $

Aika: 11:17 (17:17 UTC)

Sääennuste

Tämä raportti tehtiin 34 minuuttia sitten, kello 16.43 UTC
Ennuste voimassa 14. päivästä klo 17 UTC - 15. päivään klo 12 UTC
Tuuli 12 kn pohjoisesta
Näkyvyys: 10 km
Hajanaisia pilviä 800 ft:n korkeudessa
From 14. päivästä klo 1800 UTC
Tuuli 9 kn pohjoisesta
Näkyvyys: 10 km
selkeää

TAF: KMCI 141643Z 1417/1512 36012KT P6SM SCT008 FM141800 36009KT P6SM SKC

Säähavainnot ja -ennusteet yli 4000 lentoasemalta (METAR- ja TAF-raportit).

Käytössä olevat sääasemat on merkitty karttaan keltaisilla ja punaisilla pisteillä.

Aseta hiiri pisteen päälle nähdäksesi sääaseman nimen.

Klikkaa sitten nähdäksesi säähavainnot ja -ennusteet.

Kartan vaihtaminen: klikkaa mustalla rastilla varustettuja vihreitä pisteitä, niin voit zoomata sisään; viivalla varustettua vihreää pistettä, niin voit zoomata ulos tai vihreitä nuolia, niin pääset viereisille kartoille.


METAR-TAF: